Rochester, MN (55901)

2:35 PM CDT on April 21, 2015 (GMT -0500)
Honeckland, Elton Hills | | Change Station
CLOSE
Current Station
Personal Weather Station
Location: Rochester, MN
Elevation: 1037 ft
Nearby Weather Stations
Active Advisory: Wind Advisory Active Notice: Public Information Statement

Elev 1037 ft 44.05 °N, 92.48 °W | Updated 5 minutes ago

Overcast
Overcast
40.5 °F
Feels Like 34 °F
N
11.9
Wind Variable Wind from WNW

Today
High -- | Low -- °F
--% Chance of Precip.
Yesterday
High -- | Low -- °F
Precip. -- in
6:17 AM 8:01 PM
Waxing Crescent, 12% visible
Pressure 29.60 in
Visibility 10.0 miles
Clouds Scattered Clouds 3000 ft
Mostly Cloudy 3800 ft
Overcast 4700 ft
Windchill 34 °F
Dew Point 29 °F
Humidity 63%
Rainfall 0.00 in
Snow Depth Not available.
UV 3 out of 12
Pollen 10.00 out of 12
Air Quality Not available.
Flu Activity Local Activity
METAR K9MN 211914Z AUTO 28025G37KT 10SM SCT030 BKN038 OVC047 03/M03 A2960 RMK AO1 T00331030

More Conditions Fewer Conditions

Pressure 29.60 in
Visibility 10.0 miles
Clouds Scattered Clouds 3000 ft
Mostly Cloudy 3800 ft
Overcast 4700 ft
Windchill 34 °F
Dew Point 29 °F
Humidity 63%
Rainfall 0.00 in
Snow Depth Not available.
UV 3 out of 12
Pollen 10.00 out of 12
Air Quality Not available.
Flu Activity Local Activity
METAR K9MN 211914Z AUTO 28025G37KT 10SM SCT030 BKN038 OVC047 03/M03 A2960 RMK AO1 T00331030

More Conditions Fewer Conditions

10-Day Weather Forecast

Almanac

Astronomy

Apr. 21, 2015 Rise Set
Actual Time
Civil Twilight
Nautical Twilight
Astronomical Twilight
Moon
Length of Visible Light
Length of Day
Tomorrow will be .
, % of the Moon is Illuminated

Today's Extremes

State Highs State Lows

Community

WunderPhotos

Upload Photos

1,815,514 photos uploaded!

WunderBlogs® & News

Nearby

Air Quality

  Air Quality AQ Index Pollutant
Not available.

Snow Depth

Station Depth Elevation

Earthquake Activity

City Distance Mag. Time & Date
Minimum magnitude displayed is 2.5.

Coastal Water Temperatures

Place Temperature

Stations

Nearby Weather Stations

Station Location Temp. Windchill Dew Point Humidity Wind Precip. Elev Updated Type
                   
Wind Advisory
Statement as of 10:14 AM CDT on April 21, 2015

... Wind Advisory remains in effect until 6 PM CDT this evening...

* northwest winds will increase to 25 to 30 mph by early this
afternoon. Gusts of 40 to 45 mph are expected. Look for the
winds to subside to 15 to 25 mph this evening.

* Strong winds can make driving difficult... especially for high
profile vehicles.

Precautionary/preparedness actions...

A Wind Advisory means that sustained winds of 30 mph or higher...
or gusts over 45 mph... are expected. Use extra caution if you are
driving a high profile vehicle.



Cc